sensor_id;sensor_type;location;lat;lon;timestamp;P1;durP1;ratioP1;P2;durP2;ratioP2
23222;SDS011;11780;13.904;100.620;2023-03-01T00:00:03;72.93;;;54.85;;
23222;SDS011;11780;13.904;100.620;2023-03-01T00:02:37;78.10;;;57.22;;
23222;SDS011;11780;13.904;100.620;2023-03-01T00:05:07;81.93;;;57.75;;
23222;SDS011;11780;13.904;100.620;2023-03-01T00:07:37;81.05;;;58.75;;
23222;SDS011;11780;13.904;100.620;2023-03-01T00:10:07;77.78;;;54.28;;
23222;SDS011;11780;13.904;100.620;2023-03-01T00:12:38;83.03;;;57.13;;
23222;SDS011;11780;13.904;100.620;2023-03-01T00:15:08;73.00;;;56.00;;
23222;SDS011;11780;13.904;100.620;2023-03-01T00:17:38;78.07;;;55.80;;
23222;SDS011;11780;13.904;100.620;2023-03-01T00:20:08;81.25;;;60.03;;
23222;SDS011;11780;13.904;100.620;2023-03-01T00:22:39;74.68;;;54.70;;
23222;SDS011;11780;13.904;100.620;2023-03-01T00:25:09;71.63;;;55.08;;
23222;SDS011;11780;13.904;100.620;2023-03-01T00:27:39;79.47;;;54.72;;
23222;SDS011;11780;13.904;100.620;2023-03-01T00:30:09;76.20;;;55.90;;
23222;SDS011;11780;13.904;100.620;2023-03-01T00:32:40;76.53;;;56.13;;
23222;SDS011;11780;13.904;100.620;2023-03-01T00:35:10;75.28;;;54.80;;
23222;SDS011;11780;13.904;100.620;2023-03-01T00:37:40;77.15;;;55.13;;
23222;SDS011;11780;13.904;100.620;2023-03-01T00:40:10;79.87;;;53.90;;
23222;SDS011;11780;13.904;100.620;2023-03-01T00:42:41;82.73;;;55.00;;
23222;SDS011;11780;13.904;100.620;2023-03-01T00:45:11;75.68;;;53.17;;
23222;SDS011;11780;13.904;100.620;2023-03-01T00:50:12;85.47;;;55.35;;
23222;SDS011;11780;13.904;100.620;2023-03-01T00:52:42;83.13;;;55.70;;
23222;SDS011;11780;13.904;100.620;2023-03-01T00:55:13;75.07;;;52.92;;
23222;SDS011;11780;13.904;100.620;2023-03-01T00:57:43;88.35;;;56.15;;
23222;SDS011;11780;13.904;100.620;2023-03-01T01:00:13;74.22;;;53.50;;
23222;SDS011;11780;13.904;100.620;2023-03-01T01:02:46;75.47;;;54.40;;
23222;SDS011;11780;13.904;100.620;2023-03-01T01:05:16;77.78;;;54.35;;
23222;SDS011;11780;13.904;100.620;2023-03-01T01:07:50;80.53;;;55.42;;
23222;SDS011;11780;13.904;100.620;2023-03-01T01:10:19;89.97;;;58.00;;
23222;SDS011;11780;13.904;100.620;2023-03-01T01:12:49;80.40;;;56.10;;
23222;SDS011;11780;13.904;100.620;2023-03-01T01:15:20;85.40;;;53.95;;
23222;SDS011;11780;13.904;100.620;2023-03-01T01:17:50;73.57;;;51.70;;
23222;SDS011;11780;13.904;100.620;2023-03-01T01:20:20;79.20;;;54.73;;
23222;SDS011;11780;13.904;100.620;2023-03-01T01:22:51;81.87;;;55.10;;
23222;SDS011;11780;13.904;100.620;2023-03-01T01:25:22;79.10;;;55.33;;
23222;SDS011;11780;13.904;100.620;2023-03-01T01:27:55;79.47;;;53.10;;
23222;SDS011;11780;13.904;100.620;2023-03-01T01:30:25;83.20;;;53.00;;
23222;SDS011;11780;13.904;100.620;2023-03-01T01:32:55;72.75;;;50.95;;
23222;SDS011;11780;13.904;100.620;2023-03-01T01:35:25;375.88;;;349.90;;
23222;SDS011;11780;13.904;100.620;2023-03-01T01:37:55;76.65;;;51.60;;
23222;SDS011;11780;13.904;100.620;2023-03-01T01:40:25;315.08;;;293.02;;
23222;SDS011;11780;13.904;100.620;2023-03-01T01:42:55;318.83;;;298.02;;
23222;SDS011;11780;13.904;100.620;2023-03-01T01:45:30;423.95;;;393.77;;
23222;SDS011;11780;13.904;100.620;2023-03-01T01:48:04;449.42;;;416.85;;
23222;SDS011;11780;13.904;100.620;2023-03-01T01:50:40;313.20;;;291.33;;
23222;SDS011;11780;13.904;100.620;2023-03-01T01:53:16;656.75;;;601.13;;
23222;SDS011;11780;13.904;100.620;2023-03-01T01:55:53;627.63;;;572.35;;
23222;SDS011;11780;13.904;100.620;2023-03-01T01:58:28;758.05;;;696.78;;
23222;SDS011;11780;13.904;100.620;2023-03-01T02:01:18;548.47;;;501.00;;
23222;SDS011;11780;13.904;100.620;2023-03-01T02:04:08;624.10;;;569.45;;
23222;SDS011;11780;13.904;100.620;2023-03-01T02:06:41;69.32;;;50.65;;
23222;SDS011;11780;13.904;100.620;2023-03-01T02:09:20;60.50;;;43.45;;
23222;SDS011;11780;13.904;100.620;2023-03-01T02:12:26;61.67;;;43.03;;
23222;SDS011;11780;13.904;100.620;2023-03-01T02:14:56;55.38;;;39.53;;
23222;SDS011;11780;13.904;100.620;2023-03-01T02:17:26;69.70;;;43.58;;
23222;SDS011;11780;13.904;100.620;2023-03-01T02:22:37;67.88;;;43.28;;
23222;SDS011;11780;13.904;100.620;2023-03-01T02:28:53;61.67;;;42.60;;
23222;SDS011;11780;13.904;100.620;2023-03-01T02:31:21;738.42;;;681.15;;
23222;SDS011;11780;13.904;100.620;2023-03-01T02:34:25;721.58;;;661.95;;
23222;SDS011;11780;13.904;100.620;2023-03-01T02:37:14;859.25;;;791.90;;
23222;SDS011;11780;13.904;100.620;2023-03-01T02:39:58;332.95;;;308.67;;
23222;SDS011;11780;13.904;100.620;2023-03-01T02:42:33;332.27;;;308.48;;
23222;SDS011;11780;13.904;100.620;2023-03-01T02:45:27;407.92;;;367.55;;
23222;SDS011;11780;13.904;100.620;2023-03-01T02:47:58;364.38;;;326.48;;
23222;SDS011;11780;13.904;100.620;2023-03-01T02:53:21;386.55;;;346.10;;
23222;SDS011;11780;13.904;100.620;2023-03-01T02:55:58;715.90;;;659.13;;
23222;SDS011;11780;13.904;100.620;2023-03-01T02:58:46;231.65;;;211.63;;
23222;SDS011;11780;13.904;100.620;2023-03-01T03:01:38;49.00;;;33.25;;
23222;SDS011;11780;13.904;100.620;2023-03-01T03:04:09;39.35;;;32.50;;
23222;SDS011;11780;13.904;100.620;2023-03-01T03:06:48;51.75;;;32.58;;
23222;SDS011;11780;13.904;100.620;2023-03-01T03:09:19;54.15;;;33.08;;
23222;SDS011;11780;13.904;100.620;2023-03-01T03:11:51;43.83;;;32.00;;
23222;SDS011;11780;13.904;100.620;2023-03-01T03:14:21;44.40;;;31.25;;
23222;SDS011;11780;13.904;100.620;2023-03-01T03:17:10;44.10;;;29.90;;
23222;SDS011;11780;13.904;100.620;2023-03-01T03:19:41;42.80;;;29.87;;
23222;SDS011;11780;13.904;100.620;2023-03-01T03:22:14;39.83;;;29.08;;
23222;SDS011;11780;13.904;100.620;2023-03-01T03:24:44;42.17;;;28.75;;
23222;SDS011;11780;13.904;100.620;2023-03-01T03:27:14;48.15;;;29.90;;
23222;SDS011;11780;13.904;100.620;2023-03-01T03:29:44;41.80;;;27.73;;
23222;SDS011;11780;13.904;100.620;2023-03-01T03:32:15;41.30;;;28.25;;
23222;SDS011;11780;13.904;100.620;2023-03-01T03:34:45;42.70;;;28.90;;
23222;SDS011;11780;13.904;100.620;2023-03-01T03:37:15;40.42;;;28.35;;
23222;SDS011;11780;13.904;100.620;2023-03-01T03:40:21;680.95;;;624.55;;
23222;SDS011;11780;13.904;100.620;2023-03-01T03:43:11;570.47;;;520.53;;
23222;SDS011;11780;13.904;100.620;2023-03-01T03:45:48;147.18;;;133.57;;
23222;SDS011;11780;13.904;100.620;2023-03-01T03:48:20;32.88;;;25.90;;
23222;SDS011;11780;13.904;100.620;2023-03-01T03:50:51;313.17;;;285.05;;
23222;SDS011;11780;13.904;100.620;2023-03-01T03:53:41;533.75;;;497.33;;
23222;SDS011;11780;13.904;100.620;2023-03-01T03:56:12;762.83;;;704.63;;
23222;SDS011;11780;13.904;100.620;2023-03-01T03:58:42;386.40;;;352.73;;
23222;SDS011;11780;13.904;100.620;2023-03-01T04:01:12;561.70;;;526.78;;
23222;SDS011;11780;13.904;100.620;2023-03-01T04:03:43;49.85;;;41.00;;
23222;SDS011;11780;13.904;100.620;2023-03-01T04:06:16;124.50;;;106.13;;
23222;SDS011;11780;13.904;100.620;2023-03-01T04:08:46;352.05;;;332.45;;
23222;SDS011;11780;13.904;100.620;2023-03-01T04:11:20;35.67;;;25.83;;
23222;SDS011;11780;13.904;100.620;2023-03-01T04:14:14;61.20;;;45.13;;
23222;SDS011;11780;13.904;100.620;2023-03-01T04:16:44;32.65;;;24.45;;
23222;SDS011;11780;13.904;100.620;2023-03-01T04:19:14;100.63;;;78.68;;
23222;SDS011;11780;13.904;100.620;2023-03-01T04:21:44;175.83;;;159.47;;
23222;SDS011;11780;13.904;100.620;2023-03-01T04:24:15;35.80;;;24.98;;
23222;SDS011;11780;13.904;100.620;2023-03-01T04:27:08;31.15;;;24.02;;
23222;SDS011;11780;13.904;100.620;2023-03-01T04:29:56;32.13;;;24.15;;
23222;SDS011;11780;13.904;100.620;2023-03-01T04:32:28;30.92;;;24.15;;
23222;SDS011;11780;13.904;100.620;2023-03-01T04:35:16;30.60;;;24.08;;
23222;SDS011;11780;13.904;100.620;2023-03-01T04:37:47;29.90;;;24.35;;
23222;SDS011;11780;13.904;100.620;2023-03-01T04:40:16;30.90;;;23.60;;
23222;SDS011;11780;13.904;100.620;2023-03-01T04:42:46;29.63;;;23.55;;
23222;SDS011;11780;13.904;100.620;2023-03-01T04:45:16;34.03;;;24.35;;
23222;SDS011;11780;13.904;100.620;2023-03-01T04:47:46;30.40;;;23.08;;
23222;SDS011;11780;13.904;100.620;2023-03-01T04:50:17;33.17;;;23.53;;
23222;SDS011;11780;13.904;100.620;2023-03-01T04:53:10;27.80;;;23.58;;
23222;SDS011;11780;13.904;100.620;2023-03-01T04:55:59;35.05;;;24.77;;
23222;SDS011;11780;13.904;100.620;2023-03-01T04:58:29;26.80;;;23.42;;
23222;SDS011;11780;13.904;100.620;2023-03-01T05:01:17;31.55;;;23.48;;
23222;SDS011;11780;13.904;100.620;2023-03-01T05:04:07;26.00;;;23.30;;
23222;SDS011;11780;13.904;100.620;2023-03-01T05:06:42;27.85;;;23.13;;
23222;SDS011;11780;13.904;100.620;2023-03-01T05:09:12;29.70;;;23.23;;
23222;SDS011;11780;13.904;100.620;2023-03-01T05:11:42;29.05;;;23.77;;
23222;SDS011;11780;13.904;100.620;2023-03-01T05:14:12;26.30;;;22.17;;
23222;SDS011;11780;13.904;100.620;2023-03-01T05:16:42;27.65;;;22.08;;
23222;SDS011;11780;13.904;100.620;2023-03-01T05:19:30;29.05;;;22.65;;
23222;SDS011;11780;13.904;100.620;2023-03-01T05:22:02;31.25;;;23.35;;
23222;SDS011;11780;13.904;100.620;2023-03-01T05:24:53;24.73;;;22.05;;
23222;SDS011;11780;13.904;100.620;2023-03-01T05:27:23;25.73;;;22.52;;
23222;SDS011;11780;13.904;100.620;2023-03-01T05:30:08;26.17;;;22.88;;
23222;SDS011;11780;13.904;100.620;2023-03-01T05:32:47;25.17;;;22.20;;
23222;SDS011;11780;13.904;100.620;2023-03-01T05:35:37;28.07;;;23.60;;
23222;SDS011;11780;13.904;100.620;2023-03-01T05:38:25;30.55;;;23.42;;
23222;SDS011;11780;13.904;100.620;2023-03-01T05:41:14;46.67;;;36.45;;
23222;SDS011;11780;13.904;100.620;2023-03-01T05:43:46;29.15;;;22.33;;
23222;SDS011;11780;13.904;100.620;2023-03-01T05:46:16;31.90;;;22.98;;
23222;SDS011;11780;13.904;100.620;2023-03-01T05:48:46;26.60;;;21.25;;
23222;SDS011;11780;13.904;100.620;2023-03-01T05:51:17;30.00;;;22.00;;
23222;SDS011;11780;13.904;100.620;2023-03-01T05:53:47;29.40;;;21.17;;
23222;SDS011;11780;13.904;100.620;2023-03-01T05:56:17;26.83;;;21.55;;
23222;SDS011;11780;13.904;100.620;2023-03-01T05:58:48;23.20;;;20.75;;
23222;SDS011;11780;13.904;100.620;2023-03-01T06:01:21;23.55;;;20.45;;
23222;SDS011;11780;13.904;100.620;2023-03-01T06:04:10;22.55;;;20.20;;
23222;SDS011;11780;13.904;100.620;2023-03-01T06:06:40;26.80;;;21.08;;
23222;SDS011;11780;13.904;100.620;2023-03-01T06:09:12;27.15;;;21.10;;
23222;SDS011;11780;13.904;100.620;2023-03-01T06:12:01;26.30;;;20.52;;
23222;SDS011;11780;13.904;100.620;2023-03-01T06:14:31;33.22;;;22.90;;
23222;SDS011;11780;13.904;100.620;2023-03-01T06:17:01;23.20;;;19.00;;
23222;SDS011;11780;13.904;100.620;2023-03-01T06:19:31;28.65;;;21.95;;
23222;SDS011;11780;13.904;100.620;2023-03-01T06:22:17;40.58;;;24.90;;
23222;SDS011;11780;13.904;100.620;2023-03-01T06:24:47;39.35;;;26.10;;
23222;SDS011;11780;13.904;100.620;2023-03-01T06:27:17;33.85;;;23.15;;
23222;SDS011;11780;13.904;100.620;2023-03-01T06:29:48;37.42;;;26.63;;
23222;SDS011;11780;13.904;100.620;2023-03-01T06:32:19;25.73;;;20.50;;
23222;SDS011;11780;13.904;100.620;2023-03-01T06:34:49;34.72;;;26.88;;
23222;SDS011;11780;13.904;100.620;2023-03-01T06:37:19;31.07;;;21.40;;
23222;SDS011;11780;13.904;100.620;2023-03-01T06:39:50;112.93;;;105.87;;
23222;SDS011;11780;13.904;100.620;2023-03-01T06:42:20;37.30;;;32.13;;
23222;SDS011;11780;13.904;100.620;2023-03-01T06:44:51;358.63;;;340.48;;
23222;SDS011;11780;13.904;100.620;2023-03-01T06:47:20;22.55;;;18.73;;
23222;SDS011;11780;13.904;100.620;2023-03-01T06:49:50;25.23;;;19.25;;
23222;SDS011;11780;13.904;100.620;2023-03-01T06:52:20;370.98;;;342.48;;
23222;SDS011;11780;13.904;100.620;2023-03-01T06:55:09;20.73;;;17.83;;
23222;SDS011;11780;13.904;100.620;2023-03-01T07:00:28;115.28;;;103.95;;
23222;SDS011;11780;13.904;100.620;2023-03-01T07:02:59;128.82;;;113.95;;
23222;SDS011;11780;13.904;100.620;2023-03-01T07:05:32;163.30;;;149.15;;
23222;SDS011;11780;13.904;100.620;2023-03-01T07:08:18;174.27;;;159.55;;
23222;SDS011;11780;13.904;100.620;2023-03-01T07:10:48;212.90;;;195.43;;
23222;SDS011;11780;13.904;100.620;2023-03-01T07:13:24;23.05;;;18.70;;
23222;SDS011;11780;13.904;100.620;2023-03-01T07:16:12;20.48;;;18.02;;
23222;SDS011;11780;13.904;100.620;2023-03-01T07:19:01;343.85;;;314.65;;
23222;SDS011;11780;13.904;100.620;2023-03-01T07:21:31;53.08;;;35.45;;
23222;SDS011;11780;13.904;100.620;2023-03-01T07:24:03;60.47;;;36.97;;
23222;SDS011;11780;13.904;100.620;2023-03-01T07:26:35;190.43;;;174.88;;
23222;SDS011;11780;13.904;100.620;2023-03-01T07:29:21;410.05;;;377.95;;
23222;SDS011;11780;13.904;100.620;2023-03-01T07:32:24;503.17;;;465.10;;
23222;SDS011;11780;13.904;100.620;2023-03-01T07:35:10;180.38;;;164.32;;
23222;SDS011;11780;13.904;100.620;2023-03-01T07:37:40;105.20;;;87.25;;
23222;SDS011;11780;13.904;100.620;2023-03-01T07:40:11;35.35;;;23.88;;
23222;SDS011;11780;13.904;100.620;2023-03-01T07:42:41;56.63;;;35.30;;
23222;SDS011;11780;13.904;100.620;2023-03-01T07:45:13;26.02;;;20.00;;
23222;SDS011;11780;13.904;100.620;2023-03-01T07:47:44;26.45;;;19.88;;
23222;SDS011;11780;13.904;100.620;2023-03-01T07:50:14;22.02;;;19.40;;
23222;SDS011;11780;13.904;100.620;2023-03-01T07:52:44;26.77;;;20.00;;
23222;SDS011;11780;13.904;100.620;2023-03-01T07:55:16;26.55;;;19.63;;
23222;SDS011;11780;13.904;100.620;2023-03-01T07:57:46;30.23;;;20.73;;
23222;SDS011;11780;13.904;100.620;2023-03-01T08:00:19;29.25;;;20.83;;
23222;SDS011;11780;13.904;100.620;2023-03-01T08:03:08;25.90;;;19.85;;
23222;SDS011;11780;13.904;100.620;2023-03-01T08:05:38;27.60;;;20.37;;
23222;SDS011;11780;13.904;100.620;2023-03-01T08:08:08;23.23;;;18.88;;
23222;SDS011;11780;13.904;100.620;2023-03-01T08:10:38;26.48;;;20.20;;
23222;SDS011;11780;13.904;100.620;2023-03-01T08:13:09;24.83;;;19.98;;
23222;SDS011;11780;13.904;100.620;2023-03-01T08:15:39;27.02;;;20.60;;
23222;SDS011;11780;13.904;100.620;2023-03-01T08:18:10;24.67;;;20.50;;
23222;SDS011;11780;13.904;100.620;2023-03-01T08:20:39;23.25;;;19.25;;
23222;SDS011;11780;13.904;100.620;2023-03-01T08:25:40;30.45;;;20.70;;
23222;SDS011;11780;13.904;100.620;2023-03-01T08:28:12;26.90;;;20.30;;
23222;SDS011;11780;13.904;100.620;2023-03-01T08:30:41;26.20;;;19.00;;
23222;SDS011;11780;13.904;100.620;2023-03-01T08:33:12;31.25;;;22.02;;
23222;SDS011;11780;13.904;100.620;2023-03-01T08:36:06;32.20;;;22.48;;
23222;SDS011;11780;13.904;100.620;2023-03-01T08:38:36;30.10;;;21.15;;
23222;SDS011;11780;13.904;100.620;2023-03-01T08:41:06;27.73;;;21.30;;
23222;SDS011;11780;13.904;100.620;2023-03-01T08:43:36;112.55;;;104.82;;
23222;SDS011;11780;13.904;100.620;2023-03-01T08:46:06;24.35;;;20.98;;
23222;SDS011;11780;13.904;100.620;2023-03-01T08:48:37;48.63;;;43.13;;
23222;SDS011;11780;13.904;100.620;2023-03-01T08:51:11;206.13;;;188.20;;
23222;SDS011;11780;13.904;100.620;2023-03-01T08:53:46;624.08;;;568.45;;
23222;SDS011;11780;13.904;100.620;2023-03-01T08:56:17;127.45;;;113.82;;
23222;SDS011;11780;13.904;100.620;2023-03-01T08:58:48;29.17;;;21.65;;
23222;SDS011;11780;13.904;100.620;2023-03-01T09:01:19;65.05;;;58.25;;
23222;SDS011;11780;13.904;100.620;2023-03-01T09:03:49;44.33;;;35.38;;
23222;SDS011;11780;13.904;100.620;2023-03-01T09:06:19;37.37;;;32.00;;
23222;SDS011;11780;13.904;100.620;2023-03-01T09:09:16;74.32;;;66.68;;
23222;SDS011;11780;13.904;100.620;2023-03-01T09:12:05;164.38;;;151.93;;
23222;SDS011;11780;13.904;100.620;2023-03-01T09:14:35;198.55;;;181.00;;
23222;SDS011;11780;13.904;100.620;2023-03-01T09:17:07;132.05;;;120.68;;
23222;SDS011;11780;13.904;100.620;2023-03-01T09:19:38;463.37;;;430.17;;
23222;SDS011;11780;13.904;100.620;2023-03-01T09:22:26;24.67;;;21.50;;
23222;SDS011;11780;13.904;100.620;2023-03-01T09:24:56;29.58;;;22.52;;
23222;SDS011;11780;13.904;100.620;2023-03-01T09:27:46;24.58;;;22.08;;
23222;SDS011;11780;13.904;100.620;2023-03-01T09:30:16;73.07;;;66.50;;
23222;SDS011;11780;13.904;100.620;2023-03-01T09:33:04;67.53;;;62.40;;
23222;SDS011;11780;13.904;100.620;2023-03-01T09:35:34;25.17;;;21.48;;
23222;SDS011;11780;13.904;100.620;2023-03-01T09:38:04;23.63;;;21.13;;
23222;SDS011;11780;13.904;100.620;2023-03-01T09:40:34;287.30;;;269.52;;
23222;SDS011;11780;13.904;100.620;2023-03-01T09:46:04;214.77;;;201.80;;
23222;SDS011;11780;13.904;100.620;2023-03-01T09:48:41;132.95;;;124.50;;
23222;SDS011;11780;13.904;100.620;2023-03-01T09:51:25;26.42;;;21.92;;
23222;SDS011;11780;13.904;100.620;2023-03-01T09:54:04;25.77;;;22.55;;
23222;SDS011;11780;13.904;100.620;2023-03-01T09:56:52;26.98;;;22.35;;
23222;SDS011;11780;13.904;100.620;2023-03-01T10:02:38;23.87;;;21.37;;
23222;SDS011;11780;13.904;100.620;2023-03-01T10:05:26;24.67;;;22.17;;
23222;SDS011;11780;13.904;100.620;2023-03-01T10:10:42;25.05;;;22.33;;
23222;SDS011;11780;13.904;100.620;2023-03-01T10:13:20;146.63;;;134.93;;
23222;SDS011;11780;13.904;100.620;2023-03-01T10:16:15;26.60;;;21.95;;
23222;SDS011;11780;13.904;100.620;2023-03-01T10:18:52;241.90;;;224.75;;
23222;SDS011;11780;13.904;100.620;2023-03-01T10:21:27;366.77;;;346.52;;
23222;SDS011;11780;13.904;100.620;2023-03-01T10:24:08;124.38;;;115.85;;
23222;SDS011;11780;13.904;100.620;2023-03-01T10:26:44;24.50;;;22.02;;
23222;SDS011;11780;13.904;100.620;2023-03-01T10:29:46;26.38;;;22.85;;
23222;SDS011;11780;13.904;100.620;2023-03-01T10:32:17;27.13;;;23.17;;
23222;SDS011;11780;13.904;100.620;2023-03-01T10:34:51;25.58;;;22.88;;
23222;SDS011;11780;13.904;100.620;2023-03-01T10:37:21;29.92;;;25.58;;
23222;SDS011;11780;13.904;100.620;2023-03-01T10:42:57;24.48;;;22.08;;
23222;SDS011;11780;13.904;100.620;2023-03-01T10:56:10;23.92;;;21.58;;
23222;SDS011;11780;13.904;100.620;2023-03-01T10:59:05;24.98;;;22.67;;
23222;SDS011;11780;13.904;100.620;2023-03-01T11:02:02;25.60;;;22.88;;
23222;SDS011;11780;13.904;100.620;2023-03-01T11:07:48;32.20;;;25.93;;
23222;SDS011;11780;13.904;100.620;2023-03-01T11:10:30;25.23;;;22.73;;
23222;SDS011;11780;13.904;100.620;2023-03-01T11:13:13;30.38;;;24.75;;
23222;SDS011;11780;13.904;100.620;2023-03-01T11:15:58;26.30;;;23.02;;
23222;SDS011;11780;13.904;100.620;2023-03-01T11:18:30;61.65;;;56.10;;
23222;SDS011;11780;13.904;100.620;2023-03-01T11:21:14;37.95;;;34.20;;
23222;SDS011;11780;13.904;100.620;2023-03-01T11:23:45;27.45;;;23.55;;
23222;SDS011;11780;13.904;100.620;2023-03-01T11:26:16;25.67;;;23.05;;
23222;SDS011;11780;13.904;100.620;2023-03-01T11:28:50;26.13;;;23.42;;
23222;SDS011;11780;13.904;100.620;2023-03-01T11:31:24;25.80;;;23.10;;
23222;SDS011;11780;13.904;100.620;2023-03-01T11:33:58;28.27;;;24.67;;
23222;SDS011;11780;13.904;100.620;2023-03-01T11:36:46;30.15;;;22.85;;
23222;SDS011;11780;13.904;100.620;2023-03-01T11:42:18;27.25;;;24.30;;
23222;SDS011;11780;13.904;100.620;2023-03-01T11:45:10;24.85;;;22.35;;
23222;SDS011;11780;13.904;100.620;2023-03-01T11:47:56;25.58;;;23.13;;
23222;SDS011;11780;13.904;100.620;2023-03-01T11:53:22;25.48;;;23.02;;
23222;SDS011;11780;13.904;100.620;2023-03-01T11:56:16;41.55;;;31.00;;
23222;SDS011;11780;13.904;100.620;2023-03-01T12:07:36;29.35;;;24.58;;
23222;SDS011;11780;13.904;100.620;2023-03-01T12:16:28;27.75;;;24.88;;
23222;SDS011;11780;13.904;100.620;2023-03-01T12:24:51;27.38;;;24.52;;
23222;SDS011;11780;13.904;100.620;2023-03-01T12:27:36;42.13;;;37.25;;
23222;SDS011;11780;13.904;100.620;2023-03-01T12:30:34;63.40;;;57.85;;
23222;SDS011;11780;13.904;100.620;2023-03-01T13:56:28;178.13;;;162.35;;
23222;SDS011;11780;13.904;100.620;2023-03-01T13:59:06;67.53;;;60.38;;
23222;SDS011;11780;13.904;100.620;2023-03-01T14:01:42;47.83;;;42.97;;
23222;SDS011;11780;13.904;100.620;2023-03-01T14:09:57;36.97;;;30.83;;
23222;SDS011;11780;13.904;100.620;2023-03-01T14:18:03;41.78;;;31.48;;
23222;SDS011;11780;13.904;100.620;2023-03-01T14:20:38;41.63;;;33.22;;
23222;SDS011;11780;13.904;100.620;2023-03-01T14:23:12;39.33;;;31.25;;
23222;SDS011;11780;13.904;100.620;2023-03-01T14:25:48;35.42;;;30.90;;
23222;SDS011;11780;13.904;100.620;2023-03-01T14:28:21;43.00;;;31.88;;
23222;SDS011;11780;13.904;100.620;2023-03-01T14:30:59;35.03;;;30.10;;
23222;SDS011;11780;13.904;100.620;2023-03-01T14:33:32;42.90;;;32.83;;
23222;SDS011;11780;13.904;100.620;2023-03-01T14:36:07;41.22;;;31.92;;
23222;SDS011;11780;13.904;100.620;2023-03-01T14:38:44;48.58;;;35.00;;
23222;SDS011;11780;13.904;100.620;2023-03-01T14:41:17;41.83;;;33.30;;
23222;SDS011;11780;13.904;100.620;2023-03-01T14:49:21;41.53;;;33.42;;
23222;SDS011;11780;13.904;100.620;2023-03-01T14:52:06;41.35;;;32.92;;
23222;SDS011;11780;13.904;100.620;2023-03-01T14:54:50;42.10;;;33.92;;
23222;SDS011;11780;13.904;100.620;2023-03-01T14:57:24;44.90;;;33.65;;
23222;SDS011;11780;13.904;100.620;2023-03-01T14:59:57;35.88;;;31.42;;
23222;SDS011;11780;13.904;100.620;2023-03-01T15:02:33;36.63;;;32.08;;
23222;SDS011;11780;13.904;100.620;2023-03-01T15:05:05;38.42;;;32.35;;
23222;SDS011;11780;13.904;100.620;2023-03-01T15:07:41;46.78;;;34.28;;
23222;SDS011;11780;13.904;100.620;2023-03-01T15:10:22;44.72;;;35.22;;
23222;SDS011;11780;13.904;100.620;2023-03-01T15:12:55;43.20;;;35.75;;
23222;SDS011;11780;13.904;100.620;2023-03-01T15:15:44;42.63;;;38.00;;
23222;SDS011;11780;13.904;100.620;2023-03-01T15:20:51;45.58;;;38.00;;
23222;SDS011;11780;13.904;100.620;2023-03-01T15:23:25;53.92;;;41.38;;
23222;SDS011;11780;13.904;100.620;2023-03-01T15:25:57;50.95;;;39.78;;
23222;SDS011;11780;13.904;100.620;2023-03-01T15:28:48;45.70;;;37.83;;
23222;SDS011;11780;13.904;100.620;2023-03-01T15:31:21;46.28;;;38.30;;
23222;SDS011;11780;13.904;100.620;2023-03-01T15:34:07;43.03;;;37.15;;
23222;SDS011;11780;13.904;100.620;2023-03-01T15:36:44;41.50;;;35.50;;
23222;SDS011;11780;13.904;100.620;2023-03-01T15:45:21;40.33;;;35.97;;
23222;SDS011;11780;13.904;100.620;2023-03-01T15:47:57;43.95;;;35.90;;
23222;SDS011;11780;13.904;100.620;2023-03-01T15:50:34;43.47;;;36.35;;
23222;SDS011;11780;13.904;100.620;2023-03-01T15:53:12;41.42;;;35.17;;
23222;SDS011;11780;13.904;100.620;2023-03-01T15:55:44;41.97;;;36.47;;
23222;SDS011;11780;13.904;100.620;2023-03-01T15:58:19;42.38;;;37.03;;
23222;SDS011;11780;13.904;100.620;2023-03-01T16:01:13;45.28;;;36.65;;
23222;SDS011;11780;13.904;100.620;2023-03-01T16:03:46;44.75;;;37.15;;
23222;SDS011;11780;13.904;100.620;2023-03-01T16:06:16;42.42;;;37.65;;
23222;SDS011;11780;13.904;100.620;2023-03-01T16:08:48;42.33;;;37.75;;
23222;SDS011;11780;13.904;100.620;2023-03-01T16:11:23;41.58;;;37.17;;
23222;SDS011;11780;13.904;100.620;2023-03-01T16:13:53;45.42;;;38.30;;
23222;SDS011;11780;13.904;100.620;2023-03-01T16:16:23;44.05;;;36.83;;
23222;SDS011;11780;13.904;100.620;2023-03-01T16:18:54;47.20;;;38.20;;
23222;SDS011;11780;13.904;100.620;2023-03-01T16:21:42;47.05;;;39.03;;
23222;SDS011;11780;13.904;100.620;2023-03-01T16:24:16;41.75;;;36.95;;
23222;SDS011;11780;13.904;100.620;2023-03-01T16:26:46;43.33;;;37.95;;
23222;SDS011;11780;13.904;100.620;2023-03-01T16:29:16;47.53;;;38.40;;
23222;SDS011;11780;13.904;100.620;2023-03-01T16:31:46;43.38;;;38.58;;
23222;SDS011;11780;13.904;100.620;2023-03-01T16:34:24;47.80;;;37.92;;
23222;SDS011;11780;13.904;100.620;2023-03-01T16:37:09;47.72;;;38.50;;
23222;SDS011;11780;13.904;100.620;2023-03-01T16:39:40;44.08;;;38.15;;
23222;SDS011;11780;13.904;100.620;2023-03-01T16:42:11;42.80;;;37.10;;
23222;SDS011;11780;13.904;100.620;2023-03-01T16:44:41;42.15;;;37.33;;
23222;SDS011;11780;13.904;100.620;2023-03-01T16:47:11;45.00;;;36.92;;
23222;SDS011;11780;13.904;100.620;2023-03-01T16:49:41;45.28;;;37.25;;
23222;SDS011;11780;13.904;100.620;2023-03-01T16:52:11;40.45;;;35.70;;
23222;SDS011;11780;13.904;100.620;2023-03-01T16:55:00;47.83;;;38.00;;
23222;SDS011;11780;13.904;100.620;2023-03-01T16:57:50;48.92;;;37.22;;
23222;SDS011;11780;13.904;100.620;2023-03-01T17:00:22;43.65;;;37.00;;
23222;SDS011;11780;13.904;100.620;2023-03-01T17:02:54;41.33;;;35.42;;
23222;SDS011;11780;13.904;100.620;2023-03-01T17:05:24;45.03;;;36.58;;
23222;SDS011;11780;13.904;100.620;2023-03-01T17:10:32;43.85;;;35.20;;
23222;SDS011;11780;13.904;100.620;2023-03-01T17:13:02;43.60;;;36.65;;
23222;SDS011;11780;13.904;100.620;2023-03-01T17:15:41;45.35;;;37.97;;
23222;SDS011;11780;13.904;100.620;2023-03-01T17:18:11;44.42;;;37.05;;
23222;SDS011;11780;13.904;100.620;2023-03-01T17:20:44;43.30;;;36.70;;
23222;SDS011;11780;13.904;100.620;2023-03-01T17:23:20;49.50;;;37.38;;
23222;SDS011;11780;13.904;100.620;2023-03-01T17:25:50;44.47;;;37.65;;
23222;SDS011;11780;13.904;100.620;2023-03-01T17:28:31;43.58;;;37.25;;
23222;SDS011;11780;13.904;100.620;2023-03-01T17:31:07;46.35;;;38.08;;
23222;SDS011;11780;13.904;100.620;2023-03-01T17:33:38;46.28;;;37.20;;
23222;SDS011;11780;13.904;100.620;2023-03-01T17:36:11;43.30;;;37.35;;
23222;SDS011;11780;13.904;100.620;2023-03-01T17:38:59;49.80;;;36.25;;